createdAt,value
2023-04-10T00:02:04.725Z,94773.00
2023-04-10T00:06:16.118Z,94771.00
2023-04-10T00:10:26.885Z,94748.00
2023-04-10T00:19:52.697Z,94748.00
2023-04-10T00:24:16.319Z,94748.00
2023-04-10T00:28:32.144Z,94745.00
2023-04-10T00:37:32.994Z,94728.00
2023-04-10T00:41:57.571Z,94727.00
2023-04-10T00:50:39.638Z,94752.00
2023-04-10T00:55:20.568Z,94722.00
2023-04-10T00:59:41.452Z,94747.00
2023-04-10T01:04:17.854Z,94732.00
2023-04-10T01:09:26.018Z,94724.00
2023-04-10T01:24:05.472Z,94729.00
2023-04-10T01:43:22.696Z,94732.00
2023-04-10T01:57:38.666Z,94726.00
2023-04-10T02:02:45.396Z,94746.00
2023-04-10T02:12:00.942Z,94747.00
2023-04-10T02:16:42.704Z,94748.00
2023-04-10T02:20:53.314Z,94755.00
2023-04-10T02:25:25.697Z,94749.00
2023-04-10T02:29:48.516Z,94754.00
2023-04-10T02:33:54.171Z,94757.00
2023-04-10T02:38:01.130Z,94752.00
2023-04-10T02:42:24.102Z,94745.00
2023-04-10T02:46:36.199Z,94745.00
2023-04-10T02:50:47.145Z,94735.00
2023-04-10T02:54:59.887Z,94737.00
2023-04-10T02:59:09.546Z,94720.00
2023-04-10T03:03:15.958Z,94743.00
2023-04-10T03:07:31.487Z,94727.00
2023-04-10T03:11:38.268Z,94737.00
2023-04-10T03:15:49.262Z,94757.00
2023-04-10T03:20:03.388Z,94738.00
2023-04-10T03:24:12.449Z,94742.00
2023-04-10T03:28:17.493Z,94743.00
2023-04-10T03:32:21.352Z,94747.00
2023-04-10T03:36:32.296Z,94738.00
2023-04-10T03:40:36.112Z,94733.00
2023-04-10T03:44:50.389Z,94740.00
2023-04-10T03:48:58.324Z,94741.00
2023-04-10T03:53:12.635Z,94744.00
2023-04-10T03:57:20.154Z,94757.00
2023-04-10T04:01:27.143Z,94744.00
2023-04-10T04:05:46.729Z,94746.00
2023-04-10T04:10:18.953Z,94742.00
2023-04-10T04:14:35.489Z,94750.00
2023-04-10T04:19:07.810Z,94738.00
2023-04-10T04:23:21.602Z,94750.00
2023-04-10T04:28:00.150Z,94744.00
2023-04-10T04:32:24.372Z,94746.00
2023-04-10T04:36:43.891Z,94745.00
2023-04-10T04:40:53.479Z,94730.00
2023-04-10T04:45:21.954Z,94756.00
2023-04-10T04:49:56.641Z,94739.00
2023-04-10T04:54:24.593Z,94752.00
2023-04-10T04:58:48.960Z,94765.00
2023-04-10T05:03:16.254Z,94753.00
2023-04-10T05:07:36.358Z,94766.00
2023-04-10T05:12:14.281Z,94781.00
2023-04-10T05:16:33.623Z,94753.00
2023-04-10T05:21:02.355Z,94782.00
2023-04-10T05:25:33.985Z,94781.00
2023-04-10T05:29:48.195Z,94768.00
2023-04-10T05:34:15.286Z,94770.00
2023-04-10T05:38:38.861Z,94787.00
2023-04-10T05:43:07.699Z,94787.00
2023-04-10T05:47:30.854Z,94775.00
2023-04-10T05:52:00.387Z,94793.00
2023-04-10T05:56:18.225Z,94790.00
2023-04-10T06:00:37.328Z,94793.00
2023-04-10T06:04:59.767Z,94793.00
2023-04-10T06:09:04.775Z,94783.00
2023-04-10T06:13:11.923Z,94779.00
2023-04-10T06:17:15.948Z,94797.00
2023-04-10T06:21:20.083Z,94798.00
2023-04-10T06:25:26.872Z,94800.00
2023-04-10T06:29:32.620Z,94795.00
2023-04-10T06:33:37.190Z,94802.00
2023-04-10T06:37:46.553Z,94805.00
2023-04-10T06:41:53.401Z,94803.00
2023-04-10T06:46:20.256Z,94815.00
2023-04-10T06:50:23.919Z,94809.00
2023-04-10T06:54:27.725Z,94811.00
2023-04-10T06:58:32.589Z,94822.00
2023-04-10T07:02:38.024Z,94831.00
2023-04-10T07:06:42.102Z,94829.00
2023-04-10T07:10:45.799Z,94823.00
2023-04-10T07:14:49.844Z,94833.00
2023-04-10T07:18:57.719Z,94839.00
2023-04-10T07:23:01.455Z,94844.00
2023-04-10T07:27:05.796Z,94855.00
2023-04-10T07:31:11.076Z,94853.00
2023-04-10T07:35:17.611Z,94839.00
2023-04-10T07:39:21.933Z,94850.00
2023-04-10T07:43:25.700Z,94835.00
2023-04-10T07:47:30.234Z,94849.00
2023-04-10T07:51:36.159Z,94841.00
2023-04-10T07:55:41.407Z,94843.00
2023-04-10T07:59:46.687Z,94855.00
2023-04-10T08:03:50.603Z,94853.00
2023-04-10T08:07:57.590Z,94850.00
2023-04-10T08:12:02.852Z,94860.00
2023-04-10T08:16:07.086Z,94869.00
2023-04-10T08:20:12.314Z,94870.00
2023-04-10T08:24:19.877Z,94854.00
2023-04-10T08:28:23.637Z,94866.00
2023-04-10T08:32:28.533Z,94842.00
2023-04-10T08:36:32.986Z,94854.00
2023-04-10T08:40:40.684Z,94859.00
2023-04-10T08:44:44.406Z,94862.00
2023-04-10T08:48:50.686Z,94860.00
2023-04-10T08:52:58.202Z,94847.00
2023-04-10T08:57:05.671Z,94858.00
2023-04-10T09:01:12.239Z,94849.00
2023-04-10T09:05:16.741Z,94861.00
2023-04-10T09:09:21.417Z,94853.00
2023-04-10T09:13:40.681Z,94850.00
2023-04-10T09:17:58.411Z,94835.00
2023-04-10T09:22:04.424Z,94830.00
2023-04-10T09:26:25.625Z,94841.00
2023-04-10T09:30:43.209Z,94820.00
2023-04-10T09:34:59.011Z,94839.00
2023-04-10T09:39:04.084Z,94837.00
2023-04-10T09:43:20.305Z,94829.00
2023-04-10T09:47:27.779Z,94818.00
2023-04-10T09:51:32.818Z,94821.00
2023-04-10T09:55:37.775Z,94824.00
2023-04-10T09:59:44.517Z,94811.00
2023-04-10T10:03:50.185Z,94808.00
2023-04-10T10:07:54.044Z,94807.00
2023-04-10T10:11:57.911Z,94799.00
2023-04-10T10:16:11.664Z,94793.00
2023-04-10T10:20:21.128Z,94796.00
2023-04-10T10:24:27.964Z,94776.00
2023-04-10T10:28:35.355Z,94782.00
2023-04-10T10:32:41.917Z,94773.00
2023-04-10T10:36:50.752Z,94764.00
2023-04-10T10:41:10.899Z,94749.00
2023-04-10T10:45:19.077Z,94762.00
2023-04-10T10:49:22.848Z,94765.00
2023-04-10T10:53:44.678Z,94767.00
2023-04-10T10:57:49.149Z,94760.00
2023-04-10T11:02:15.941Z,94775.00
2023-04-10T11:06:21.635Z,94769.00
2023-04-10T11:11:07.460Z,94762.00
2023-04-10T11:15:12.716Z,94742.00
2023-04-10T11:19:19.189Z,94747.00
2023-04-10T11:23:24.867Z,94742.00
2023-04-10T11:27:44.190Z,94745.00
2023-04-10T11:31:56.968Z,94729.00
2023-04-10T11:36:02.976Z,94732.00
2023-04-10T11:40:07.785Z,94725.00
2023-04-10T11:44:13.399Z,94702.00
2023-04-10T11:48:19.265Z,94714.00
2023-04-10T11:52:26.599Z,94711.00
2023-04-10T11:56:30.448Z,94712.00
2023-04-10T12:00:34.680Z,94699.00
2023-04-10T12:04:40.301Z,94691.00
2023-04-10T12:08:46.350Z,94685.00
2023-04-10T12:12:50.121Z,94685.00
2023-04-10T12:16:55.009Z,94699.00
2023-04-10T12:21:01.221Z,94683.00
2023-04-10T12:25:06.212Z,94668.00
2023-04-10T12:29:10.841Z,94656.00
2023-04-10T12:33:15.515Z,94666.00
2023-04-10T12:37:21.211Z,94658.00
2023-04-10T12:41:26.580Z,94651.00
2023-04-10T12:45:45.164Z,94663.00
2023-04-10T12:50:08.648Z,94647.00
2023-04-10T12:54:13.814Z,94639.00
2023-04-10T12:58:19.261Z,94635.00
2023-04-10T13:02:25.072Z,94634.00
2023-04-10T13:06:29.528Z,94633.00
2023-04-10T13:10:34.712Z,94621.00
2023-04-10T13:14:38.195Z,94618.00
2023-04-10T13:18:41.735Z,94616.00
2023-04-10T13:22:45.737Z,94607.00
2023-04-10T13:26:51.581Z,94617.00
2023-04-10T13:30:55.386Z,94612.00
2023-04-10T13:35:04.968Z,94617.00
2023-04-10T13:39:36.282Z,94596.00
2023-04-10T13:43:48.904Z,94610.00
2023-04-10T13:47:56.452Z,94610.00
2023-04-10T13:52:02.087Z,94607.00
2023-04-10T13:56:14.492Z,94596.00
2023-04-10T14:00:21.468Z,94591.00
2023-04-10T14:04:25.978Z,94587.00
2023-04-10T14:08:30.652Z,94580.00
2023-04-10T14:12:36.260Z,94568.00
2023-04-10T14:16:43.053Z,94570.00
2023-04-10T14:20:48.040Z,94562.00
2023-04-10T14:25:05.276Z,94571.00
2023-04-10T14:29:18.181Z,94554.00
2023-04-10T14:33:29.699Z,94571.00
2023-04-10T14:37:34.810Z,94554.00
2023-04-10T14:41:38.674Z,94556.00
2023-04-10T14:45:42.242Z,94547.00
2023-04-10T14:49:48.365Z,94528.00
2023-04-10T14:54:04.681Z,94540.00
2023-04-10T14:58:11.649Z,94540.00
2023-04-10T15:02:15.496Z,94523.00
2023-04-10T15:06:20.621Z,94516.00
2023-04-10T15:10:25.642Z,94503.00
2023-04-10T15:14:30.593Z,94498.00
2023-04-10T15:18:34.300Z,94502.00
2023-04-10T15:22:40.760Z,94492.00
2023-04-10T15:26:48.971Z,94491.00
2023-04-10T15:30:53.977Z,94498.00
2023-04-10T15:35:13.211Z,94494.00
2023-04-10T15:39:24.352Z,94493.00
2023-04-10T15:43:32.436Z,94503.00
2023-04-10T15:47:45.373Z,94489.00
2023-04-10T15:51:49.277Z,94472.00
2023-04-10T15:55:54.713Z,94473.00
2023-04-10T16:00:00.732Z,94476.00
2023-04-10T16:04:07.317Z,94475.00
2023-04-10T16:08:13.604Z,94469.00
2023-04-10T16:12:21.185Z,94471.00
2023-04-10T16:16:27.593Z,94463.00
2023-04-10T16:20:34.082Z,94453.00
2023-04-10T16:24:41.956Z,94468.00
2023-04-10T16:28:50.331Z,94469.00
2023-04-10T16:32:58.847Z,94445.00
2023-04-10T16:37:04.505Z,94455.00
2023-04-10T16:41:10.402Z,94455.00
2023-04-10T16:45:17.224Z,94465.00
2023-04-10T16:49:23.549Z,94451.00
2023-04-10T16:53:31.576Z,94439.00
2023-04-10T16:57:37.344Z,94443.00
2023-04-10T17:01:44.261Z,94432.00
2023-04-10T17:05:50.644Z,94419.00
2023-04-10T17:09:54.879Z,94428.00
2023-04-10T17:14:00.619Z,94428.00
2023-04-10T17:18:08.629Z,94420.00
2023-04-10T17:22:17.221Z,94413.00
2023-04-10T17:26:26.965Z,94411.00
2023-04-10T17:30:32.099Z,94423.00
2023-04-10T17:34:40.937Z,94407.00
2023-04-10T17:38:57.526Z,94405.00
2023-04-10T17:43:05.780Z,94408.00
2023-04-10T17:47:21.500Z,94402.00
2023-04-10T17:51:32.146Z,94395.00
2023-04-10T17:55:42.265Z,94382.00
2023-04-10T17:59:47.944Z,94387.00
2023-04-10T18:03:53.579Z,94390.00
2023-04-10T18:08:00.835Z,94377.00
2023-04-10T18:12:06.149Z,94380.00
2023-04-10T18:16:13.064Z,94395.00
2023-04-10T18:20:24.612Z,94372.00
2023-04-10T18:25:03.286Z,94371.00
2023-04-10T18:29:13.868Z,94376.00
2023-04-10T18:38:56.619Z,94388.00
2023-04-10T18:43:21.631Z,94389.00
2023-04-10T18:47:38.728Z,94386.00
2023-04-10T18:51:45.746Z,94395.00
2023-04-10T18:55:57.012Z,94375.00
2023-04-10T19:00:09.799Z,94377.00
2023-04-10T19:04:21.914Z,94370.00
2023-04-10T19:08:32.295Z,94381.00
2023-04-10T19:12:41.363Z,94381.00
2023-04-10T19:17:43.497Z,94364.00
2023-04-10T19:21:56.424Z,94370.00
2023-04-10T19:26:08.219Z,94371.00
2023-04-10T19:30:31.775Z,94371.00
2023-04-10T19:34:43.883Z,94369.00
2023-04-10T19:39:10.382Z,94352.00
2023-04-10T19:43:21.120Z,94347.00
2023-04-10T19:47:31.054Z,94346.00
2023-04-10T19:51:41.876Z,94350.00
2023-04-10T19:55:55.092Z,94358.00
2023-04-10T20:00:12.620Z,94358.00
2023-04-10T20:04:18.446Z,94347.00
2023-04-10T20:08:29.777Z,94346.00
2023-04-10T20:12:49.602Z,94329.00
2023-04-10T20:17:25.112Z,94323.00
2023-04-10T20:21:32.788Z,94322.00
2023-04-10T20:25:57.584Z,94313.00
2023-04-10T20:30:13.203Z,94295.00
2023-04-10T20:35:12.706Z,94294.00
2023-04-10T20:44:21.657Z,94297.00
2023-04-10T20:48:48.284Z,94290.00
2023-04-10T20:58:20.619Z,94287.00
2023-04-10T21:02:48.017Z,94301.00
2023-04-10T21:07:01.242Z,94292.00
2023-04-10T21:15:35.642Z,94271.00
2023-04-10T21:20:01.292Z,94279.00
2023-04-10T21:24:29.545Z,94273.00
2023-04-10T21:33:03.965Z,94269.00
2023-04-10T21:37:16.969Z,94244.00
2023-04-10T21:41:48.553Z,94249.00
2023-04-10T21:46:01.555Z,94252.00
2023-04-10T21:50:13.868Z,94237.00
2023-04-10T21:54:54.163Z,94239.00
2023-04-10T21:59:08.661Z,94227.00
2023-04-10T22:07:48.695Z,94214.00
2023-04-10T22:12:14.718Z,94212.00
2023-04-10T22:16:32.699Z,94206.00
2023-04-10T22:20:50.251Z,94205.00
2023-04-10T22:25:24.071Z,94190.00
2023-04-10T22:30:04.525Z,94180.00
2023-04-10T22:34:29.754Z,94191.00
2023-04-10T22:38:36.320Z,94208.00
2023-04-10T22:43:02.735Z,94204.00
2023-04-10T22:47:29.679Z,94186.00
2023-04-10T22:51:39.308Z,94193.00
2023-04-10T22:55:50.773Z,94156.00
2023-04-10T23:00:23.301Z,94191.00
2023-04-10T23:04:52.416Z,94155.00
2023-04-10T23:14:04.467Z,94160.00
2023-04-10T23:18:48.550Z,94144.00
2023-04-10T23:23:20.742Z,94132.00
2023-04-10T23:37:01.467Z,94132.00
2023-04-10T23:46:30.137Z,94071.00
2023-04-10T23:50:43.954Z,94104.00
2023-04-10T23:55:10.419Z,94106.00
